createdAt,value
2022-11-19T00:02:11.232Z,-2.10
2022-11-19T00:04:39.485Z,-2.10
2022-11-19T00:07:07.587Z,-2.10
2022-11-19T00:09:35.692Z,-2.40
2022-11-19T00:12:21.247Z,-2.30
2022-11-19T00:14:50.804Z,-2.30
2022-11-19T00:17:18.918Z,-2.30
2022-11-19T00:19:47.034Z,-2.20
2022-11-19T00:22:15.382Z,-2.20
2022-11-19T00:24:43.391Z,-2.30
2022-11-19T00:27:11.721Z,-2.20
2022-11-19T00:29:39.794Z,-2.20
2022-11-19T00:32:09.195Z,-2.30
2022-11-19T00:34:37.273Z,-2.20
2022-11-19T00:37:05.276Z,-2.00
2022-11-19T00:39:33.293Z,-2.00
2022-11-19T00:42:01.321Z,-2.00
2022-11-19T00:44:35.608Z,-1.90
2022-11-19T00:47:05.231Z,-2.00
2022-11-19T00:49:34.712Z,-2.10
2022-11-19T00:52:03.065Z,-2.10
2022-11-19T00:54:31.097Z,-2.30
2022-11-19T00:56:59.511Z,-2.20
2022-11-19T00:59:27.984Z,-2.10
2022-11-19T01:01:56.081Z,-2.10
2022-11-19T01:04:24.465Z,-2.20
2022-11-19T01:06:54.158Z,-2.10
2022-11-19T01:09:22.301Z,-2.10
2022-11-19T01:11:50.471Z,-2.20
2022-11-19T01:14:18.610Z,-2.20
2022-11-19T01:16:46.721Z,-2.20
2022-11-19T01:19:16.915Z,-2.30
2022-11-19T01:21:45.361Z,-2.30
2022-11-19T01:24:15.288Z,-2.30
2022-11-19T01:26:45.966Z,-2.30
2022-11-19T01:29:14.511Z,-2.20
2022-11-19T01:31:42.601Z,-2.20
2022-11-19T01:34:10.620Z,-2.40
2022-11-19T01:36:38.966Z,-2.40
2022-11-19T01:39:07.050Z,-2.30
2022-11-19T01:41:36.815Z,-2.30
2022-11-19T01:44:06.382Z,-2.30
2022-11-19T01:46:36.835Z,-2.30
2022-11-19T01:49:08.265Z,-2.40
2022-11-19T01:51:39.673Z,-2.40
2022-11-19T01:54:13.563Z,-2.70
2022-11-19T01:56:43.314Z,-2.60
2022-11-19T01:59:17.723Z,-2.50
2022-11-19T02:01:46.356Z,-2.50
2022-11-19T02:04:17.769Z,-2.50
2022-11-19T02:06:46.506Z,-2.50
2022-11-19T02:09:14.777Z,-2.60
2022-11-19T02:12:04.276Z,-2.70
2022-11-19T02:14:50.546Z,-2.60
2022-11-19T02:17:30.096Z,-2.60
2022-11-19T02:20:37.552Z,-2.60
2022-11-19T02:23:25.082Z,-2.60
2022-11-19T02:26:17.556Z,-2.60
2022-11-19T02:28:49.257Z,-2.70
2022-11-19T02:31:22.235Z,-2.90
2022-11-19T02:33:56.775Z,-3.10
2022-11-19T02:36:29.493Z,-3.10
2022-11-19T02:39:03.725Z,-3.10
2022-11-19T02:41:35.704Z,-2.90
2022-11-19T02:44:41.817Z,-2.80
2022-11-19T02:47:14.027Z,-3.10
2022-11-19T02:49:45.607Z,-3.00
2022-11-19T02:52:14.803Z,-2.90
2022-11-19T02:54:42.948Z,-2.90
2022-11-19T02:57:12.225Z,-2.80
2022-11-19T03:00:02.988Z,-3.00
2022-11-19T03:03:04.063Z,-2.90
2022-11-19T03:05:34.846Z,-2.80
2022-11-19T03:08:03.344Z,-3.00
2022-11-19T03:10:40.956Z,-3.00
2022-11-19T03:13:29.111Z,-3.20
2022-11-19T03:16:16.513Z,-3.30
2022-11-19T03:18:52.588Z,-3.20
2022-11-19T03:21:26.349Z,-3.10
2022-11-19T03:23:59.853Z,-3.20
2022-11-19T03:26:32.145Z,-3.00
2022-11-19T03:29:03.820Z,-2.90
2022-11-19T03:31:34.448Z,-3.00
2022-11-19T03:34:09.240Z,-2.90
2022-11-19T03:36:39.461Z,-3.00
2022-11-19T03:39:10.513Z,-3.00
2022-11-19T03:41:42.169Z,-3.30
2022-11-19T03:44:15.844Z,-3.20
2022-11-19T03:46:45.850Z,-3.10
2022-11-19T03:49:16.616Z,-3.10
2022-11-19T03:51:50.103Z,-3.10
2022-11-19T03:54:18.681Z,-3.00
2022-11-19T03:56:48.179Z,-3.00
2022-11-19T03:59:16.306Z,-3.00
2022-11-19T04:01:45.285Z,-3.10
2022-11-19T04:04:32.026Z,-3.30
2022-11-19T04:07:00.273Z,-3.60
2022-11-19T04:09:28.338Z,-3.50
2022-11-19T04:11:56.308Z,-3.80
2022-11-19T04:14:24.438Z,-4.00
2022-11-19T04:16:52.406Z,-3.90
2022-11-19T04:19:22.116Z,-3.60
2022-11-19T04:21:50.258Z,-3.40
2022-11-19T04:24:18.741Z,-3.30
2022-11-19T04:26:46.911Z,-3.30
2022-11-19T04:29:15.250Z,-3.70
2022-11-19T04:31:43.331Z,-3.80
2022-11-19T04:34:11.396Z,-3.50
2022-11-19T04:36:42.452Z,-3.40
2022-11-19T04:39:12.480Z,-3.30
2022-11-19T04:41:41.441Z,-3.20
2022-11-19T04:44:09.586Z,-3.20
2022-11-19T04:46:38.010Z,-3.20
2022-11-19T04:49:06.125Z,-3.20
2022-11-19T04:51:34.180Z,-3.50
2022-11-19T04:54:03.879Z,-3.30
2022-11-19T04:56:31.941Z,-3.30
2022-11-19T04:58:59.900Z,-3.20
2022-11-19T05:01:28.342Z,-3.20
2022-11-19T05:03:56.357Z,-3.20
2022-11-19T05:06:24.658Z,-3.20
2022-11-19T05:08:52.668Z,-3.20
2022-11-19T05:11:22.482Z,-3.20
2022-11-19T05:13:50.452Z,-3.40
2022-11-19T05:16:19.097Z,-3.40
2022-11-19T05:18:47.545Z,-3.50
2022-11-19T05:21:15.558Z,-3.40
2022-11-19T05:23:43.605Z,-3.40
2022-11-19T05:26:11.859Z,-3.50
2022-11-19T05:28:41.220Z,-3.50
2022-11-19T05:31:10.404Z,-3.50
2022-11-19T05:33:38.499Z,-3.40
2022-11-19T05:36:07.511Z,-3.60
2022-11-19T05:38:35.744Z,-3.50
2022-11-19T05:41:04.166Z,-3.50
2022-11-19T05:43:32.155Z,-3.50
2022-11-19T05:46:02.763Z,-3.40
2022-11-19T05:48:31.399Z,-3.60
2022-11-19T05:50:59.436Z,-3.60
2022-11-19T05:53:28.269Z,-3.70
2022-11-19T05:55:56.266Z,-3.70
2022-11-19T05:58:24.319Z,-3.70
2022-11-19T06:00:56.058Z,-3.70
2022-11-19T06:03:25.485Z,-3.50
2022-11-19T06:05:53.994Z,-3.50
2022-11-19T06:08:22.177Z,-3.50
2022-11-19T06:10:50.259Z,-3.60
2022-11-19T06:13:18.688Z,-3.70
2022-11-19T06:15:46.889Z,-3.60
2022-11-19T06:18:15.377Z,-3.60
2022-11-19T06:20:44.708Z,-3.70
2022-11-19T06:23:13.150Z,-3.60
2022-11-19T06:25:41.192Z,-3.60
2022-11-19T06:28:09.158Z,-3.80
2022-11-19T06:30:37.569Z,-3.80
2022-11-19T06:33:05.659Z,-3.70
2022-11-19T06:35:33.769Z,-3.60
2022-11-19T06:38:03.173Z,-3.70
2022-11-19T06:40:31.208Z,-3.70
2022-11-19T06:42:59.227Z,-3.60
2022-11-19T06:45:27.270Z,-3.60
2022-11-19T06:47:55.311Z,-3.60
2022-11-19T06:50:23.477Z,-3.60
2022-11-19T06:52:51.458Z,-3.60
2022-11-19T06:55:20.927Z,-3.60
2022-11-19T06:57:48.981Z,-3.60
2022-11-19T07:00:18.377Z,-3.80
2022-11-19T07:02:46.580Z,-2.40
2022-11-19T07:05:14.580Z,-0.80
2022-11-19T07:07:42.615Z,-1.70
2022-11-19T07:10:11.079Z,-2.00
2022-11-19T07:12:40.947Z,-2.00
2022-11-19T07:15:09.858Z,-2.60
2022-11-19T07:17:38.317Z,-2.10
2022-11-19T07:20:07.645Z,-1.80
2022-11-19T07:22:35.794Z,-1.50
2022-11-19T07:25:03.811Z,-1.40
2022-11-19T07:27:31.848Z,-1.60
2022-11-19T07:30:02.208Z,-1.70
2022-11-19T07:32:30.260Z,-1.90
2022-11-19T07:34:58.232Z,-1.90
2022-11-19T07:37:26.248Z,-1.80
2022-11-19T07:39:54.249Z,-1.80
2022-11-19T07:42:39.700Z,-1.50
2022-11-19T07:45:09.913Z,-0.40
2022-11-19T07:47:37.965Z,0.10
2022-11-19T07:50:06.861Z,0.70
2022-11-19T07:52:34.942Z,0.80
2022-11-19T07:55:03.080Z,1.00
2022-11-19T07:57:31.129Z,1.10
2022-11-19T07:59:59.203Z,0.80
2022-11-19T08:02:28.789Z,0.70
2022-11-19T08:04:56.804Z,0.70
2022-11-19T08:07:25.178Z,0.80
2022-11-19T08:09:53.178Z,0.90
2022-11-19T08:12:21.150Z,1.00
2022-11-19T08:14:49.371Z,1.20
2022-11-19T08:17:35.269Z,1.60
2022-11-19T08:20:05.332Z,2.10
2022-11-19T08:22:33.633Z,2.40
2022-11-19T08:25:01.618Z,2.70
2022-11-19T08:27:29.612Z,3.00
2022-11-19T08:29:57.647Z,3.20
2022-11-19T08:32:26.010Z,3.40
2022-11-19T08:34:54.365Z,3.60
2022-11-19T08:37:23.712Z,3.80
2022-11-19T08:39:51.701Z,4.00
2022-11-19T08:42:37.399Z,4.10
2022-11-19T08:45:06.478Z,4.30
2022-11-19T08:47:34.654Z,4.50
2022-11-19T08:50:02.741Z,3.70
2022-11-19T08:52:32.137Z,2.90
2022-11-19T08:55:00.191Z,2.20
2022-11-19T08:57:28.197Z,2.50
2022-11-19T08:59:56.934Z,3.00
2022-11-19T09:02:27.120Z,3.20
2022-11-19T09:04:55.130Z,2.60
2022-11-19T09:07:23.215Z,5.90
2022-11-19T09:09:52.606Z,6.40
2022-11-19T09:12:20.624Z,4.70
2022-11-19T09:14:48.911Z,4.20
2022-11-19T09:17:17.052Z,3.40
2022-11-19T09:19:45.312Z,4.10
2022-11-19T09:22:13.280Z,3.30
2022-11-19T09:24:41.327Z,2.60
2022-11-19T09:27:10.961Z,2.70
2022-11-19T09:29:38.950Z,2.60
2022-11-19T09:32:07.028Z,2.70
2022-11-19T09:34:35.158Z,3.80
2022-11-19T09:37:03.104Z,4.40
2022-11-19T09:39:31.216Z,4.80
2022-11-19T09:42:10.385Z,5.20
2022-11-19T09:44:59.507Z,6.40
2022-11-19T09:47:40.965Z,6.90
2022-11-19T09:50:16.703Z,7.20
2022-11-19T09:52:49.281Z,6.70
2022-11-19T09:55:21.377Z,6.30
2022-11-19T09:57:53.011Z,6.00
2022-11-19T10:00:24.957Z,5.80
2022-11-19T10:02:53.594Z,5.70
2022-11-19T10:05:30.761Z,6.40
2022-11-19T10:08:13.951Z,6.50
2022-11-19T10:10:44.074Z,6.80
2022-11-19T10:13:37.137Z,7.00
2022-11-19T10:16:22.666Z,6.50
2022-11-19T10:19:02.768Z,4.70
2022-11-19T10:21:38.862Z,4.60
2022-11-19T10:24:18.582Z,5.60
2022-11-19T10:26:50.406Z,5.70
2022-11-19T10:29:23.004Z,5.10
2022-11-19T10:31:53.259Z,5.50
2022-11-19T10:34:27.615Z,6.50
2022-11-19T10:37:00.949Z,6.80
2022-11-19T10:39:36.681Z,6.50
2022-11-19T10:42:14.807Z,6.10
2022-11-19T10:44:48.060Z,6.70
2022-11-19T10:47:21.464Z,6.90
2022-11-19T10:49:54.198Z,7.00
2022-11-19T10:52:32.185Z,7.10
2022-11-19T10:55:06.424Z,6.70
2022-11-19T10:57:35.096Z,7.20
2022-11-19T11:00:03.881Z,7.20
2022-11-19T11:02:41.534Z,7.50
2022-11-19T11:05:12.704Z,7.50
2022-11-19T11:07:52.213Z,7.80
2022-11-19T11:10:42.711Z,7.40
2022-11-19T11:13:42.065Z,7.40
2022-11-19T11:16:12.605Z,7.60
2022-11-19T11:18:42.550Z,7.20
2022-11-19T11:21:22.160Z,7.30
2022-11-19T11:23:53.765Z,7.00
2022-11-19T11:26:24.481Z,6.80
2022-11-19T11:29:04.521Z,7.10
2022-11-19T11:31:39.031Z,7.10
2022-11-19T11:34:14.581Z,6.60
2022-11-19T11:36:44.248Z,6.70
2022-11-19T11:39:26.114Z,7.00
2022-11-19T11:42:05.295Z,6.90
2022-11-19T11:44:36.655Z,6.80
2022-11-19T11:47:12.269Z,6.60
2022-11-19T11:49:45.025Z,6.70
2022-11-19T11:52:22.476Z,6.60
2022-11-19T11:54:59.968Z,6.60
2022-11-19T11:57:30.287Z,6.70
2022-11-19T11:59:58.735Z,6.20
2022-11-19T12:02:31.255Z,6.20
2022-11-19T12:05:04.185Z,6.20
2022-11-19T12:08:01.179Z,6.30
2022-11-19T12:10:35.945Z,6.20
2022-11-19T12:13:31.953Z,6.30
2022-11-19T12:16:09.370Z,6.10
2022-11-19T12:18:46.980Z,6.00
2022-11-19T12:21:26.513Z,6.10
2022-11-19T12:24:10.509Z,6.30
2022-11-19T12:26:51.733Z,6.00
2022-11-19T12:29:28.404Z,5.90
2022-11-19T12:32:14.236Z,6.00
2022-11-19T12:34:57.025Z,6.10
2022-11-19T12:37:43.264Z,5.80
2022-11-19T12:40:23.688Z,5.80
2022-11-19T12:43:04.157Z,6.00
2022-11-19T12:45:43.217Z,6.00
2022-11-19T12:48:31.457Z,6.00
2022-11-19T12:51:05.108Z,5.80
2022-11-19T12:54:04.362Z,5.40
2022-11-19T12:56:43.302Z,5.70
2022-11-19T12:59:28.961Z,5.10
2022-11-19T13:02:00.970Z,5.30
2022-11-19T13:04:38.251Z,5.50
2022-11-19T13:07:11.602Z,5.40
2022-11-19T13:09:45.053Z,5.40
2022-11-19T13:12:16.773Z,5.40
2022-11-19T13:14:52.013Z,5.50
2022-11-19T13:17:26.644Z,5.50
2022-11-19T13:19:59.239Z,5.10
2022-11-19T13:22:32.824Z,5.20
2022-11-19T13:25:06.641Z,5.20
2022-11-19T13:27:34.760Z,5.20
2022-11-19T13:30:05.528Z,4.90
2022-11-19T13:32:41.742Z,5.00
2022-11-19T13:35:19.684Z,5.00
2022-11-19T13:38:02.067Z,4.90
2022-11-19T13:40:36.877Z,4.90
2022-11-19T13:43:32.066Z,4.80
2022-11-19T13:46:09.710Z,4.70
2022-11-19T13:48:42.021Z,4.70
2022-11-19T13:51:21.672Z,5.00
2022-11-19T13:53:50.505Z,4.90
2022-11-19T13:56:21.672Z,4.80
2022-11-19T13:58:52.551Z,4.70
2022-11-19T14:01:45.812Z,4.20
2022-11-19T14:04:43.685Z,4.10
2022-11-19T14:07:35.998Z,4.40
2022-11-19T14:10:15.759Z,4.50
2022-11-19T14:13:08.018Z,4.10
2022-11-19T14:16:15.950Z,4.20
2022-11-19T14:19:05.283Z,4.20
2022-11-19T14:22:08.330Z,4.10
2022-11-19T14:25:14.734Z,4.10
2022-11-19T14:27:43.725Z,3.90
2022-11-19T14:30:21.961Z,4.00
2022-11-19T14:32:52.406Z,4.10
2022-11-19T14:35:29.050Z,3.90
2022-11-19T14:38:00.089Z,3.90
2022-11-19T14:40:30.630Z,3.90
2022-11-19T14:43:44.500Z,3.80
2022-11-19T14:46:30.538Z,3.90
2022-11-19T14:49:07.142Z,3.70
2022-11-19T14:51:40.651Z,3.70
2022-11-19T14:54:31.023Z,3.70
2022-11-19T14:57:11.033Z,3.70
2022-11-19T14:59:52.583Z,3.80
2022-11-19T15:02:27.514Z,3.60
2022-11-19T15:05:00.609Z,3.60
2022-11-19T15:07:55.925Z,3.60
2022-11-19T15:11:04.415Z,3.40
2022-11-19T15:13:33.747Z,3.40
2022-11-19T15:16:10.419Z,3.30
2022-11-19T15:19:17.282Z,3.20
2022-11-19T15:22:18.677Z,3.00
2022-11-19T15:24:59.960Z,2.90
2022-11-19T15:27:40.156Z,2.90
2022-11-19T15:30:15.731Z,2.70
2022-11-19T15:33:12.412Z,2.80
2022-11-19T15:36:12.192Z,2.80
2022-11-19T15:38:43.205Z,2.80
2022-11-19T15:41:24.281Z,2.70
2022-11-19T15:43:57.355Z,2.70
2022-11-19T15:46:35.492Z,2.60
2022-11-19T15:49:11.374Z,2.40
2022-11-19T15:52:03.602Z,2.30
2022-11-19T15:54:33.687Z,2.20
2022-11-19T15:57:04.695Z,2.20
2022-11-19T15:59:36.579Z,2.20
2022-11-19T16:02:07.137Z,2.20
2022-11-19T16:04:38.967Z,2.20
2022-11-19T16:07:11.298Z,2.10
2022-11-19T16:09:39.952Z,2.10
2022-11-19T16:12:26.199Z,2.10
2022-11-19T16:15:12.462Z,1.90
2022-11-19T16:17:47.723Z,1.90
2022-11-19T16:20:21.993Z,1.90
2022-11-19T16:22:59.344Z,1.90
2022-11-19T16:25:32.645Z,1.80
2022-11-19T16:28:04.340Z,1.90
2022-11-19T16:30:42.597Z,1.80
2022-11-19T16:33:17.764Z,1.70
2022-11-19T16:35:51.232Z,1.60
2022-11-19T16:38:27.442Z,1.50
2022-11-19T16:41:13.762Z,1.60
2022-11-19T16:43:45.187Z,1.60
2022-11-19T16:46:16.771Z,1.60
2022-11-19T16:48:58.538Z,1.70
2022-11-19T16:51:37.947Z,1.70
2022-11-19T16:54:09.319Z,1.70
2022-11-19T16:56:42.107Z,1.60
2022-11-19T16:59:19.057Z,1.50
2022-11-19T17:01:54.070Z,1.50
2022-11-19T17:04:24.246Z,1.40
2022-11-19T17:06:52.356Z,1.30
2022-11-19T17:09:41.920Z,1.20
2022-11-19T17:12:27.219Z,1.20
2022-11-19T17:15:00.972Z,1.10
2022-11-19T17:17:40.399Z,1.00
2022-11-19T17:21:00.602Z,1.10
2022-11-19T17:23:30.997Z,1.10
2022-11-19T17:26:03.594Z,1.10
2022-11-19T17:28:41.291Z,1.20
2022-11-19T17:31:17.406Z,1.10
2022-11-19T17:33:57.288Z,1.20
2022-11-19T17:36:27.763Z,1.20
2022-11-19T17:38:56.018Z,1.10
2022-11-19T17:41:44.540Z,1.00
2022-11-19T17:44:35.719Z,0.90
2022-11-19T17:47:07.425Z,0.60
2022-11-19T17:49:47.246Z,0.60
2022-11-19T17:52:22.767Z,0.80
2022-11-19T17:54:51.097Z,0.80
2022-11-19T17:57:20.728Z,0.80
2022-11-19T17:59:48.885Z,0.60
2022-11-19T18:02:17.977Z,0.50
2022-11-19T18:04:47.495Z,0.70
2022-11-19T18:07:16.019Z,0.50
2022-11-19T18:09:44.896Z,0.60
2022-11-19T18:12:16.852Z,0.50
2022-11-19T18:14:48.457Z,0.60
2022-11-19T18:17:17.356Z,0.50
2022-11-19T18:19:45.473Z,0.40
2022-11-19T18:22:19.185Z,0.50
2022-11-19T18:24:49.017Z,0.60
2022-11-19T18:27:17.554Z,0.50
2022-11-19T18:29:47.017Z,0.50
2022-11-19T18:32:17.070Z,0.50
2022-11-19T18:34:45.937Z,0.40
2022-11-19T18:37:14.231Z,0.50
2022-11-19T18:39:42.495Z,0.50
2022-11-19T18:42:12.512Z,0.50
2022-11-19T18:44:41.722Z,0.50
2022-11-19T18:47:12.605Z,0.40
2022-11-19T18:49:41.456Z,0.50
2022-11-19T18:52:14.579Z,0.50
2022-11-19T18:54:42.845Z,0.50
2022-11-19T18:57:11.485Z,0.30
2022-11-19T18:59:39.914Z,0.40
2022-11-19T19:02:09.782Z,0.50
2022-11-19T19:04:39.313Z,0.40
2022-11-19T19:07:07.458Z,0.40
2022-11-19T19:09:37.407Z,0.30
2022-11-19T19:12:21.534Z,0.40
2022-11-19T19:14:51.590Z,0.50
2022-11-19T19:17:20.688Z,0.50
2022-11-19T19:19:50.235Z,0.40
2022-11-19T19:22:18.667Z,0.50
2022-11-19T19:24:47.101Z,0.50
2022-11-19T19:27:15.290Z,0.50
2022-11-19T19:29:43.372Z,0.40
2022-11-19T19:32:11.454Z,0.50
2022-11-19T19:34:39.441Z,0.50
2022-11-19T19:37:08.966Z,0.40
2022-11-19T19:39:37.077Z,0.40
2022-11-19T19:42:05.410Z,0.30
2022-11-19T19:44:33.650Z,0.30
2022-11-19T19:47:04.800Z,0.40
2022-11-19T19:49:38.415Z,0.40
2022-11-19T19:52:08.414Z,0.40
2022-11-19T19:54:36.747Z,0.40
2022-11-19T19:57:05.154Z,0.30
2022-11-19T19:59:33.247Z,0.30
2022-11-19T20:02:03.238Z,0.30
2022-11-19T20:04:33.000Z,0.30
2022-11-19T20:07:01.111Z,0.40
2022-11-19T20:09:30.516Z,0.30
2022-11-19T20:11:59.722Z,0.40
2022-11-19T20:14:28.379Z,0.30
2022-11-19T20:16:56.450Z,0.20
2022-11-19T20:19:25.072Z,0.20
2022-11-19T20:21:53.349Z,0.40
2022-11-19T20:24:22.668Z,0.40
2022-11-19T20:26:52.339Z,0.30
2022-11-19T20:29:22.086Z,0.30
2022-11-19T20:31:51.717Z,0.30
2022-11-19T20:34:19.954Z,0.10
2022-11-19T20:36:48.661Z,0.20
2022-11-19T20:39:16.678Z,0.00
2022-11-19T20:42:02.036Z,-0.10
2022-11-19T20:44:31.461Z,0.00
2022-11-19T20:47:02.052Z,0.10
2022-11-19T20:49:32.104Z,0.30
2022-11-19T20:52:00.451Z,0.20
2022-11-19T20:54:29.033Z,0.20
2022-11-19T20:56:58.307Z,0.20
2022-11-19T20:59:28.705Z,0.10
2022-11-19T21:01:58.571Z,0.10
2022-11-19T21:04:28.564Z,0.10
2022-11-19T21:06:56.803Z,0.10
2022-11-19T21:09:25.550Z,0.20
2022-11-19T21:11:53.924Z,0.10
2022-11-19T21:14:21.979Z,0.20
2022-11-19T21:16:50.056Z,0.20
2022-11-19T21:19:19.834Z,0.10
2022-11-19T21:21:48.129Z,0.30
2022-11-19T21:24:16.621Z,0.30
2022-11-19T21:26:45.037Z,0.30
2022-11-19T21:29:13.148Z,0.30
2022-11-19T21:31:42.390Z,0.30
2022-11-19T21:34:12.133Z,0.30
2022-11-19T21:36:42.891Z,0.20
2022-11-19T21:39:11.556Z,0.20
2022-11-19T21:41:39.900Z,0.30
2022-11-19T21:44:08.185Z,0.30
2022-11-19T21:46:36.697Z,0.30
2022-11-19T21:49:04.958Z,0.30
2022-11-19T21:51:33.022Z,0.20
2022-11-19T21:54:02.468Z,0.20
2022-11-19T21:56:36.907Z,0.20
2022-11-19T21:59:06.886Z,0.20
2022-11-19T22:01:34.967Z,0.30
2022-11-19T22:04:02.972Z,0.30
2022-11-19T22:06:31.865Z,0.30
2022-11-19T22:08:59.912Z,0.30
2022-11-19T22:11:32.476Z,0.20
2022-11-19T22:14:02.853Z,0.20
2022-11-19T22:16:32.255Z,0.20
2022-11-19T22:19:00.591Z,0.20
2022-11-19T22:21:30.023Z,0.30
2022-11-19T22:23:59.086Z,0.30
2022-11-19T22:26:27.582Z,0.20
2022-11-19T22:28:57.240Z,0.30
2022-11-19T22:31:26.456Z,0.20
2022-11-19T22:33:55.516Z,0.30
2022-11-19T22:36:24.746Z,0.20
2022-11-19T22:38:53.147Z,0.20
2022-11-19T22:41:22.554Z,0.30
2022-11-19T22:43:51.673Z,0.30
2022-11-19T22:46:21.292Z,0.20
2022-11-19T22:48:49.894Z,0.20
2022-11-19T22:51:20.140Z,0.20
2022-11-19T22:53:48.849Z,0.20
2022-11-19T22:56:19.736Z,0.20
2022-11-19T22:58:48.499Z,0.20
2022-11-19T23:01:18.949Z,0.20
2022-11-19T23:03:48.545Z,0.20
2022-11-19T23:06:16.750Z,0.20
2022-11-19T23:08:45.278Z,0.30
2022-11-19T23:11:15.300Z,0.30
2022-11-19T23:13:44.389Z,0.20
2022-11-19T23:16:14.488Z,0.20
2022-11-19T23:18:46.804Z,0.20
2022-11-19T23:21:19.636Z,0.20
2022-11-19T23:23:48.091Z,0.30
2022-11-19T23:26:18.071Z,0.30
2022-11-19T23:28:46.156Z,0.30
2022-11-19T23:31:17.052Z,0.20
2022-11-19T23:33:46.029Z,0.20
2022-11-19T23:36:17.118Z,0.30
2022-11-19T23:38:45.644Z,0.20
2022-11-19T23:41:15.651Z,0.20
2022-11-19T23:43:44.378Z,0.30
2022-11-19T23:46:14.377Z,0.30
2022-11-19T23:48:44.169Z,0.40
2022-11-19T23:51:14.347Z,0.40
2022-11-19T23:53:45.131Z,0.30
2022-11-19T23:56:14.485Z,0.40
2022-11-19T23:58:43.437Z,0.50
